Time;durP1;ratioP1;P1;durP2;ratioP2;P2;SDS_P1;SDS_P2;PMS_P1;PMS_P2;Temp;Humidity;BMP_temperature;BMP_pressure;BME280_temperature;BME280_humidity;BME280_pressure;Samples;Min_cycle;Max_cycle;Signal;HPM_P1;HPM_P2
2021/09/11 00:02:28;;;;;;;9.32;6.75;;;20.50;65.50;;;;;;5045689;28;20036;-50
2021/09/11 00:05:13;;;;;;;11.35;7.70;;;20.50;65.50;;;;;;5045321;28;20052;-49
2021/09/11 00:07:58;;;;;;;11.90;7.97;;;20.50;65.80;;;;;;5045009;28;20056;-50
2021/09/11 00:10:42;;;;;;;10.07;7.65;;;20.50;66.00;;;;;;5045246;28;20074;-51
2021/09/11 00:13:26;;;;;;;10.93;7.90;;;20.50;66.10;;;;;;5044885;28;20043;-53
2021/09/11 00:16:11;;;;;;;10.07;8.20;;;20.50;66.70;;;;;;5044856;28;20052;-52
2021/09/11 00:18:55;;;;;;;11.00;8.70;;;20.50;67.00;;;;;;5044823;28;20036;-52
2021/09/11 00:21:39;;;;;;;12.38;9.15;;;20.60;67.40;;;;;;5044751;28;20035;-53
2021/09/11 00:24:23;;;;;;;11.88;9.20;;;20.60;67.70;;;;;;5044607;28;20059;-51
2021/09/11 00:27:08;;;;;;;12.18;9.15;;;20.60;67.90;;;;;;5045118;28;20021;-49
2021/09/11 00:29:52;;;;;;;13.82;9.50;;;20.60;68.10;;;;;;5044737;28;20039;-50
2021/09/11 00:32:42;;;;;;;19.38;10.18;;;20.70;68.60;;;;;;5044230;28;20034;-53
2021/09/11 00:35:26;;;;;;;16.60;10.95;;;20.60;69.50;;;;;;5045043;28;20075;-53
2021/09/11 00:38:10;;;;;;;20.63;11.35;;;20.60;70.10;;;;;;5044474;28;20036;-54
2021/09/11 00:40:54;;;;;;;17.48;11.13;;;20.50;70.80;;;;;;5044712;28;20029;-53
2021/09/11 00:43:49;;;;;;;17.10;11.25;;;20.50;70.90;;;;;;5043219;28;20032;-54
2021/09/11 00:46:33;;;;;;;16.13;11.50;;;20.50;71.60;;;;;;5044567;28;20032;-53
2021/09/11 00:49:17;;;;;;;14.82;11.50;;;20.50;71.30;;;;;;5044234;28;20036;-53
2021/09/11 00:52:02;;;;;;;16.45;12.38;;;20.50;71.60;;;;;;5044479;28;20048;-54
2021/09/11 00:54:47;;;;;;;19.67;12.75;;;20.50;71.50;;;;;;5044254;28;20041;-53
2021/09/11 00:57:31;;;;;;;17.13;12.50;;;20.50;71.80;;;;;;5044161;28;20044;-53
2021/09/11 01:00:16;;;;;;;16.77;12.45;;;20.50;71.70;;;;;;5043175;28;20395;-54
2021/09/11 01:03:00;;;;;;;16.98;12.40;;;20.40;72.00;;;;;;5043555;28;20029;-53
2021/09/11 01:05:44;;;;;;;18.75;13.05;;;20.40;72.30;;;;;;5044131;28;20032;-54
2021/09/11 01:08:28;;;;;;;16.45;12.70;;;20.40;72.50;;;;;;5044376;28;20049;-54
2021/09/11 01:11:13;;;;;;;20.83;13.55;;;20.40;72.70;;;;;;5044227;28;20024;-54
2021/09/11 01:13:58;;;;;;;15.65;13.05;;;20.40;72.50;;;;;;5043755;28;20036;-54
2021/09/11 01:16:42;;;;;;;21.77;13.80;;;20.50;72.40;;;;;;5043746;28;20364;-54
2021/09/11 01:19:26;;;;;;;22.42;14.30;;;20.40;72.70;;;;;;5043708;28;20032;-54
2021/09/11 01:22:15;;;;;;;18.33;13.35;;;20.30;73.10;;;;;;5043643;28;20035;-54
2021/09/11 01:25:04;;;;;;;17.23;13.55;;;20.40;73.80;;;;;;5043543;28;20075;-54
2021/09/11 01:27:47;;;;;;;20.83;13.50;;;20.30;73.60;;;;;;5043662;28;20055;-54
2021/09/11 01:30:32;;;;;;;17.77;14.10;;;20.30;73.60;;;;;;5042716;28;20064;-54
2021/09/11 01:33:16;;;;;;;20.08;14.38;;;20.30;73.60;;;;;;5043494;28;20089;-54
2021/09/11 01:36:00;;;;;;;18.85;14.05;;;20.30;73.70;;;;;;5044139;28;20063;-54
2021/09/11 01:38:44;;;;;;;20.60;14.82;;;20.30;73.80;;;;;;5043743;28;20032;-55
2021/09/11 01:41:28;;;;;;;19.77;14.00;;;20.30;73.90;;;;;;5044059;28;20040;-54
2021/09/11 01:44:13;;;;;;;20.27;13.77;;;20.30;73.80;;;;;;5047016;28;20233;-54
2021/09/11 01:46:57;;;;;;;19.70;13.88;;;20.30;73.90;;;;;;5050469;28;20350;-53
2021/09/11 01:49:42;;;;;;;26.92;14.07;;;20.30;73.90;;;;;;5049442;28;20045;-54
2021/09/11 01:52:26;;;;;;;19.05;14.27;;;20.30;74.00;;;;;;5049318;28;20083;-52
2021/09/11 01:55:11;;;;;;;20.13;14.43;;;20.30;73.90;;;;;;5049320;28;20036;-52
2021/09/11 01:57:56;;;;;;;19.35;13.98;;;20.30;73.80;;;;;;5050087;28;20040;-54
2021/09/11 02:00:40;;;;;;;20.63;13.55;;;20.30;73.90;;;;;;5050086;28;20048;-53
2021/09/11 02:03:25;;;;;;;22.58;14.15;;;20.30;74.00;;;;;;5049925;28;20136;-54
2021/09/11 02:06:09;;;;;;;19.25;13.40;;;20.30;73.90;;;;;;5050429;28;20202;-54
2021/09/11 02:08:53;;;;;;;17.98;13.98;;;20.30;73.90;;;;;;5050075;28;20039;-54
2021/09/11 02:11:37;;;;;;;19.50;13.75;;;20.30;73.80;;;;;;5049925;28;20059;-53
2021/09/11 02:14:22;;;;;;;19.77;13.95;;;20.30;73.80;;;;;;5049971;28;20036;-54
2021/09/11 02:17:06;;;;;;;19.80;13.73;;;20.30;73.80;;;;;;5049866;28;20049;-54
2021/09/11 02:19:50;;;;;;;18.80;13.90;;;20.30;73.90;;;;;;5049944;28;20043;-53
2021/09/11 02:22:35;;;;;;;16.23;12.48;;;20.30;73.80;;;;;;5049764;28;20043;-53
2021/09/11 02:25:19;;;;;;;18.77;13.45;;;20.30;73.90;;;;;;5049819;28;20084;-54
2021/09/11 02:28:03;;;;;;;16.75;13.15;;;20.20;74.30;;;;;;5049702;28;20103;-54
2021/09/11 02:30:47;;;;;;;18.50;13.32;;;20.20;74.40;;;;;;5049738;28;20034;-54
2021/09/11 02:33:32;;;;;;;17.92;12.82;;;20.20;74.40;;;;;;5049709;28;20097;-53
2021/09/11 02:36:16;;;;;;;17.65;12.70;;;20.30;74.30;;;;;;5049434;28;20024;-54
2021/09/11 02:39:00;;;;;;;16.00;12.00;;;20.20;74.40;;;;;;5050102;28;20220;-53
2021/09/11 02:41:44;;;;;;;14.52;10.82;;;20.20;74.20;;;;;;5049839;28;20340;-54
2021/09/11 02:44:28;;;;;;;15.70;11.25;;;20.20;74.20;;;;;;5049753;28;20160;-55
2021/09/11 02:47:13;;;;;;;16.38;9.85;;;20.20;74.10;;;;;;5049527;28;20217;-55
2021/09/11 02:49:57;;;;;;;13.30;10.00;;;20.10;74.10;;;;;;5049500;28;20079;-53
2021/09/11 02:52:41;;;;;;;11.20;8.98;;;20.00;74.10;;;;;;5049425;28;20104;-54
2021/09/11 02:55:26;;;;;;;11.63;9.45;;;20.00;74.00;;;;;;5048415;28;20092;-55
2021/09/11 02:58:10;;;;;;;12.27;8.57;;;20.00;74.00;;;;;;5046381;28;20351;-55
2021/09/11 03:00:54;;;;;;;12.80;8.70;;;19.90;74.10;;;;;;5045576;28;20036;-55
2021/09/11 03:03:38;;;;;;;10.02;8.02;;;19.80;74.10;;;;;;5046275;28;20051;-54
2021/09/11 03:06:23;;;;;;;11.98;8.35;;;19.80;74.20;;;;;;5046167;28;20373;-55
2021/09/11 03:09:07;;;;;;;11.20;8.32;;;19.80;74.30;;;;;;5046595;28;20040;-54
2021/09/11 03:11:51;;;;;;;10.65;8.02;;;19.80;74.40;;;;;;5046205;28;20300;-54
2021/09/11 03:14:35;;;;;;;10.48;7.95;;;19.70;74.40;;;;;;5046608;28;20380;-55
2021/09/11 03:17:19;;;;;;;10.57;7.90;;;19.60;74.60;;;;;;5046490;28;20024;-55
2021/09/11 03:20:04;;;;;;;11.55;8.05;;;19.70;74.70;;;;;;5045928;28;20071;-54
2021/09/11 03:22:48;;;;;;;13.95;7.80;;;19.60;74.70;;;;;;5045795;28;20072;-54
2021/09/11 03:25:33;;;;;;;10.30;7.97;;;19.70;74.70;;;;;;5045753;28;20201;-55
2021/09/11 03:28:17;;;;;;;10.57;7.95;;;19.60;74.60;;;;;;5044923;28;20052;-52
2021/09/11 03:31:01;;;;;;;9.82;7.65;;;19.60;74.60;;;;;;5045759;28;20040;-54
2021/09/11 03:33:45;;;;;;;10.85;7.68;;;19.50;74.70;;;;;;5045653;28;20052;-53
2021/09/11 03:36:30;;;;;;;11.73;7.78;;;19.60;74.80;;;;;;5045580;28;20379;-53
2021/09/11 03:39:14;;;;;;;11.48;7.90;;;19.60;75.00;;;;;;5045647;28;20061;-54
2021/09/11 03:41:58;;;;;;;12.25;8.20;;;19.70;74.90;;;;;;5046063;28;20252;-52
2021/09/11 03:44:42;;;;;;;11.30;8.15;;;19.70;74.80;;;;;;5045494;28;20224;-54
2021/09/11 03:47:26;;;;;;;12.38;8.10;;;19.70;74.70;;;;;;5045955;28;20064;-54
2021/09/11 03:50:11;;;;;;;10.82;7.90;;;19.60;75.00;;;;;;5045865;28;20068;-52
2021/09/11 03:52:55;;;;;;;9.43;7.65;;;19.60;75.10;;;;;;5045786;28;20044;-54
2021/09/11 03:55:39;;;;;;;11.57;8.27;;;19.60;75.00;;;;;;5045842;28;20336;-54
2021/09/11 03:58:23;;;;;;;10.40;7.35;;;19.60;74.90;;;;;;5045449;28;20037;-53
2021/09/11 04:01:08;;;;;;;10.18;8.00;;;19.70;74.90;;;;;;5045372;28;20032;-53
2021/09/11 04:03:52;;;;;;;10.77;7.50;;;19.70;74.50;;;;;;5045145;28;20083;-54
2021/09/11 04:06:38;;;;;;;12.32;7.70;;;19.70;74.40;;;;;;5044553;28;20068;-50
2021/09/11 04:09:22;;;;;;;12.52;7.45;;;19.60;74.60;;;;;;5045053;28;20216;-54
2021/09/11 04:12:07;;;;;;;11.07;7.53;;;19.60;74.70;;;;;;5045424;28;20048;-54
2021/09/11 04:14:51;;;;;;;8.85;7.07;;;19.60;74.50;;;;;;5045178;28;20040;-53
2021/09/11 04:17:35;;;;;;;9.63;7.35;;;19.60;74.40;;;;;;5045433;28;20075;-54
2021/09/11 04:20:20;;;;;;;8.95;7.00;;;19.60;74.20;;;;;;5045349;28;20024;-53
2021/09/11 04:23:04;;;;;;;10.88;6.88;;;19.70;74.20;;;;;;5044730;28;20036;-54
2021/09/11 04:25:48;;;;;;;9.15;6.47;;;19.70;74.20;;;;;;5044758;28;20048;-54
2021/09/11 04:28:33;;;;;;;9.27;7.10;;;19.60;74.20;;;;;;5044622;28;20052;-54
2021/09/11 04:31:17;;;;;;;8.43;6.32;;;19.50;74.00;;;;;;5044562;28;20108;-54
2021/09/11 04:34:01;;;;;;;8.93;6.18;;;19.50;74.10;;;;;;5044551;28;20043;-54
2021/09/11 04:36:45;;;;;;;8.90;6.82;;;19.50;74.20;;;;;;5044503;28;20075;-54
2021/09/11 04:39:30;;;;;;;10.00;6.80;;;19.50;74.10;;;;;;5044423;28;20076;-53
2021/09/11 04:42:14;;;;;;;10.30;6.57;;;19.50;74.10;;;;;;5044422;28;20044;-54
2021/09/11 04:44:58;;;;;;;8.18;6.35;;;19.50;74.20;;;;;;5044696;28;20048;-54
2021/09/11 04:47:42;;;;;;;10.43;7.18;;;19.50;74.30;;;;;;5043604;28;20047;-55
2021/09/11 04:50:26;;;;;;;10.25;6.70;;;19.50;74.50;;;;;;5044322;28;20255;-53
2021/09/11 04:53:10;;;;;;;11.23;7.25;;;19.50;74.60;;;;;;5043279;28;20076;-53
2021/09/11 04:55:55;;;;;;;8.48;6.43;;;19.50;74.60;;;;;;5044175;28;20080;-54
2021/09/11 04:58:39;;;;;;;8.70;6.88;;;19.40;74.50;;;;;;5044246;28;20253;-54
2021/09/11 05:01:23;;;;;;;9.27;7.72;;;19.40;74.70;;;;;;5044128;28;20222;-53
2021/09/11 05:04:08;;;;;;;8.63;6.97;;;19.40;74.70;;;;;;5044064;28;20347;-55
2021/09/11 05:06:53;;;;;;;9.45;6.50;;;19.40;74.70;;;;;;5043089;28;20040;-54
2021/09/11 05:09:37;;;;;;;8.52;6.93;;;19.30;74.60;;;;;;5043958;28;20036;-54
2021/09/11 05:12:21;;;;;;;9.60;6.40;;;19.40;74.40;;;;;;5043782;28;20072;-54
2021/09/11 05:15:06;;;;;;;9.35;6.70;;;19.40;74.50;;;;;;5044625;28;20024;-53
2021/09/11 05:17:50;;;;;;;8.15;6.63;;;19.30;74.90;;;;;;5043755;28;20071;-52
2021/09/11 05:20:34;;;;;;;9.75;7.30;;;19.40;74.60;;;;;;5044137;28;20036;-53
2021/09/11 05:23:19;;;;;;;9.25;6.90;;;19.40;74.50;;;;;;5043637;28;20092;-55
2021/09/11 05:26:03;;;;;;;9.07;6.88;;;19.40;74.70;;;;;;5043669;28;20040;-53
2021/09/11 05:28:47;;;;;;;10.02;7.10;;;19.30;75.00;;;;;;5043612;28;20224;-54
2021/09/11 05:31:32;;;;;;;10.13;7.20;;;19.30;75.10;;;;;;5043481;28;20125;-54
2021/09/11 05:34:16;;;;;;;11.77;7.28;;;19.40;75.20;;;;;;5043545;28;20063;-53
2021/09/11 05:37:00;;;;;;;8.15;6.88;;;19.40;75.40;;;;;;5043564;28;20088;-53
2021/09/11 05:39:45;;;;;;;10.43;7.65;;;19.40;75.50;;;;;;5043523;28;20109;-54
2021/09/11 05:42:29;;;;;;;8.02;6.95;;;19.40;75.60;;;;;;5043499;28;20395;-53
2021/09/11 05:45:13;;;;;;;9.75;7.55;;;19.50;75.50;;;;;;5043310;28;20368;-50
2021/09/11 05:47:58;;;;;;;10.60;6.95;;;19.50;75.50;;;;;;5043945;28;20029;-53
2021/09/11 05:50:42;;;;;;;10.07;7.63;;;19.50;75.50;;;;;;5043624;28;20072;-55
2021/09/11 05:53:26;;;;;;;10.10;7.72;;;19.50;75.60;;;;;;5044088;28;20432;-54
2021/09/11 05:56:11;;;;;;;8.93;7.20;;;19.50;75.70;;;;;;5043816;28;20080;-54
2021/09/11 05:58:55;;;;;;;9.65;7.68;;;19.50;75.70;;;;;;5043754;28;20040;-54
2021/09/11 06:01:40;;;;;;;9.50;7.43;;;19.50;76.00;;;;;;5043726;28;20029;-54
2021/09/11 06:04:24;;;;;;;9.02;7.40;;;19.60;75.80;;;;;;5043545;28;20075;-54
2021/09/11 06:07:08;;;;;;;10.73;8.00;;;19.60;75.90;;;;;;5043874;28;20028;-55
2021/09/11 06:09:52;;;;;;;11.00;7.68;;;19.60;76.00;;;;;;5043387;28;20260;-54
2021/09/11 06:12:37;;;;;;;13.70;8.43;;;19.60;76.00;;;;;;5043255;28;20036;-54
2021/09/11 06:15:21;;;;;;;11.85;8.60;;;19.60;75.90;;;;;;5043154;28;20028;-55
2021/09/11 06:18:05;;;;;;;12.18;8.43;;;19.60;76.00;;;;;;5043630;28;20040;-54
2021/09/11 06:20:49;;;;;;;13.02;8.05;;;19.70;75.90;;;;;;5043321;28;20040;-54
2021/09/11 06:23:34;;;;;;;11.13;8.07;;;19.70;75.90;;;;;;5043610;28;20052;-55
2021/09/11 06:26:18;;;;;;;13.82;10.00;;;19.70;76.10;;;;;;5043587;28;20351;-54
2021/09/11 06:29:02;;;;;;;10.32;8.40;;;19.80;76.40;;;;;;5043590;28;20036;-53
2021/09/11 06:31:46;;;;;;;10.05;7.75;;;19.80;76.50;;;;;;5046701;28;20033;-55
2021/09/11 06:34:31;;;;;;;9.73;8.05;;;19.80;76.20;;;;;;5046808;28;20075;-55
2021/09/11 06:37:15;;;;;;;15.80;7.63;;;19.80;75.80;;;;;;5046819;28;20044;-54
2021/09/11 06:39:59;;;;;;;9.32;7.30;;;19.80;75.80;;;;;;5046666;28;20076;-54
2021/09/11 06:42:43;;;;;;;9.85;7.57;;;19.80;76.00;;;;;;5046872;28;20063;-55
2021/09/11 06:45:28;;;;;;;12.18;7.97;;;19.80;76.30;;;;;;5046479;28;20124;-55
2021/09/11 06:48:12;;;;;;;12.48;7.55;;;19.90;76.30;;;;;;5047027;28;20020;-55
2021/09/11 06:50:56;;;;;;;8.60;6.82;;;20.00;76.20;;;;;;5046668;28;20376;-54
2021/09/11 06:53:41;;;;;;;9.38;7.90;;;20.00;76.30;;;;;;5047323;28;20074;-55
2021/09/11 06:56:25;;;;;;;10.25;7.47;;;20.00;76.20;;;;;;5046424;28;20032;-54
2021/09/11 06:59:09;;;;;;;9.57;7.63;;;20.10;76.40;;;;;;5046790;28;20351;-55
2021/09/11 07:01:53;;;;;;;8.93;7.40;;;20.10;76.10;;;;;;5046452;28;20097;-55
2021/09/11 07:04:38;;;;;;;9.10;7.43;;;20.00;75.80;;;;;;5046257;28;20036;-55
2021/09/11 07:07:22;;;;;;;8.35;6.80;;;20.10;76.00;;;;;;5046466;28;20047;-55
2021/09/11 07:10:07;;;;;;;8.80;7.07;;;20.10;76.00;;;;;;5046323;28;20218;-54
2021/09/11 07:12:52;;;;;;;8.55;6.60;;;20.20;76.00;;;;;;5045249;28;20064;-55
2021/09/11 07:15:36;;;;;;;7.97;6.82;;;20.20;76.00;;;;;;5046349;28;20140;-55
2021/09/11 07:18:20;;;;;;;7.55;6.38;;;20.20;75.90;;;;;;5045970;28;20037;-54
2021/09/11 07:21:04;;;;;;;10.55;6.72;;;20.30;75.70;;;;;;5046438;28;20091;-53
2021/09/11 07:23:48;;;;;;;9.48;6.30;;;20.30;76.00;;;;;;5045087;28;20056;-55
2021/09/11 07:26:32;;;;;;;8.82;6.15;;;20.30;75.70;;;;;;5045859;28;20039;-54
2021/09/11 07:29:17;;;;;;;8.93;6.30;;;20.30;75.40;;;;;;5046509;28;20037;-55
2021/09/11 07:32:03;;;;;;;8.35;6.80;;;20.40;75.40;;;;;;5045732;28;20108;-54
2021/09/11 07:34:47;;;;;;;9.18;6.65;;;20.50;75.30;;;;;;5045761;28;20351;-53
2021/09/11 07:37:31;;;;;;;7.35;5.68;;;20.70;74.60;;;;;;5045628;28;20309;-55
2021/09/11 07:40:16;;;;;;;10.10;6.13;;;20.90;74.10;;;;;;5045622;28;20344;-55
2021/09/11 07:43:02;;;;;;;7.30;5.78;;;20.90;74.40;;;;;;5044658;28;20367;-55
2021/09/11 07:45:46;;;;;;;8.00;6.20;;;20.90;74.50;;;;;;5045302;28;20059;-54
2021/09/11 07:48:31;;;;;;;11.13;6.18;;;21.00;74.60;;;;;;5045385;28;20052;-55
2021/09/11 07:51:15;;;;;;;7.28;6.07;;;21.00;74.60;;;;;;5045330;28;20028;-55
2021/09/11 07:54:00;;;;;;;7.55;5.65;;;21.00;74.80;;;;;;5045814;28;20128;-55
2021/09/11 07:56:44;;;;;;;6.80;5.40;;;21.00;74.80;;;;;;5045447;28;20037;-55
2021/09/11 07:59:29;;;;;;;7.68;5.75;;;21.00;74.30;;;;;;5045794;28;20343;-54
2021/09/11 08:02:13;;;;;;;6.68;5.70;;;21.00;74.10;;;;;;5045588;28;20484;-54
2021/09/11 08:04:57;;;;;;;7.38;5.90;;;21.00;73.80;;;;;;5045417;28;20216;-55
2021/09/11 08:07:41;;;;;;;7.20;5.93;;;21.00;73.80;;;;;;5045343;28;20071;-54
2021/09/11 08:10:26;;;;;;;8.05;6.10;;;21.10;73.90;;;;;;5045268;28;20036;-55
2021/09/11 08:13:10;;;;;;;8.45;6.40;;;21.20;73.40;;;;;;5045028;28;20244;-54
2021/09/11 08:15:54;;;;;;;9.18;6.72;;;21.20;74.00;;;;;;5044926;28;20058;-55
2021/09/11 08:18:38;;;;;;;7.88;6.30;;;21.30;74.80;;;;;;5044914;28;20032;-55
2021/09/11 08:21:23;;;;;;;10.38;5.95;;;21.40;74.40;;;;;;5044882;28;20032;-53
2021/09/11 08:24:07;;;;;;;7.03;5.53;;;21.50;74.50;;;;;;5045154;28;20040;-55
2021/09/11 08:26:51;;;;;;;9.30;6.00;;;21.70;74.00;;;;;;5044769;28;20055;-55
2021/09/11 08:29:35;;;;;;;7.38;5.72;;;21.80;73.80;;;;;;5045146;28;20072;-54
2021/09/11 08:32:20;;;;;;;6.57;5.57;;;22.00;73.40;;;;;;5044980;28;20044;-55
2021/09/11 08:35:05;;;;;;;7.28;5.65;;;22.10;72.20;;;;;;5044878;28;20036;-55
2021/09/11 08:37:49;;;;;;;8.95;5.60;;;22.10;71.40;;;;;;5044696;28;20064;-55
2021/09/11 08:40:33;;;;;;;7.00;5.18;;;22.30;70.80;;;;;;5044688;28;20056;-55
2021/09/11 08:43:18;;;;;;;6.82;5.10;;;22.40;69.90;;;;;;5044437;28;20360;-55
2021/09/11 08:46:02;;;;;;;7.18;5.57;;;22.50;68.60;;;;;;5044632;28;20048;-55
2021/09/11 08:48:46;;;;;;;6.60;4.93;;;22.60;68.70;;;;;;5044382;28;20128;-54
2021/09/11 08:51:33;;;;;;;5.93;4.85;;;22.70;67.50;;;;;;5044098;28;20028;-55
2021/09/11 08:54:21;;;;;;;6.03;5.00;;;22.70;66.50;;;;;;5044069;28;20019;-55
2021/09/11 08:57:25;;;;;;;7.63;5.18;;;22.80;67.90;;;;;;5044694;28;20032;-55
2021/09/11 09:00:10;;;;;;;7.90;5.53;;;22.90;66.60;;;;;;5044215;28;20052;-55
2021/09/11 09:02:54;;;;;;;6.68;4.85;;;23.10;65.10;;;;;;5044577;28;20036;-55
2021/09/11 09:05:38;;;;;;;6.47;4.90;;;23.20;64.20;;;;;;5043378;28;20040;-55
2021/09/11 09:08:27;;;;;;;5.60;4.65;;;23.20;64.60;;;;;;5044448;28;20097;-54
2021/09/11 09:11:30;;;;;;;5.55;4.70;;;23.10;65.20;;;;;;5044407;28;20036;-55
2021/09/11 09:14:18;;;;;;;7.00;5.05;;;23.10;66.40;;;;;;5044342;28;20037;-53
2021/09/11 09:17:09;;;;;;;6.72;5.30;;;23.10;64.90;;;;;;5043319;28;20063;-55
2021/09/11 09:20:09;;;;;;;9.15;5.38;;;23.00;62.90;;;;;;5044093;28;20056;-54
2021/09/11 09:22:59;;;;;;;7.78;5.22;;;22.90;63.80;;;;;;5043956;28;20036;-54
2021/09/11 09:25:43;;;;;;;6.97;5.18;;;22.90;64.50;;;;;;5044018;28;20244;-55
2021/09/11 09:28:27;;;;;;;7.32;5.03;;;22.90;64.30;;;;;;5043914;28;20040;-54
2021/09/11 09:31:11;;;;;;;6.70;4.90;;;22.80;64.30;;;;;;5015142;28;20040;-55
2021/09/11 09:33:55;;;;;;;5.97;5.00;;;22.80;64.20;;;;;;5043623;28;20294;-54
2021/09/11 09:36:40;;;;;;;8.32;5.88;;;22.80;63.40;;;;;;5043613;28;20097;-55
2021/09/11 09:39:24;;;;;;;10.05;5.20;;;22.80;64.30;;;;;;5043853;28;20071;-54
2021/09/11 09:42:09;;;;;;;6.95;5.15;;;22.80;63.70;;;;;;5043872;28;20093;-54
2021/09/11 09:44:54;;;;;;;9.48;5.45;;;22.90;63.90;;;;;;5043332;28;20094;-55
2021/09/11 09:47:38;;;;;;;6.45;4.97;;;22.80;63.10;;;;;;5043297;28;20029;-55
2021/09/11 09:50:22;;;;;;;6.80;5.50;;;22.90;63.80;;;;;;5043902;28;20063;-54
2021/09/11 09:53:09;;;;;;;6.80;5.38;;;22.80;63.60;;;;;;5028552;28;20052;-55
2021/09/11 09:55:53;;;;;;;6.95;5.00;;;22.90;64.30;;;;;;5043408;28;20084;-53
2021/09/11 09:58:38;;;;;;;6.95;5.25;;;22.90;64.70;;;;;;5043535;28;20072;-54
2021/09/11 10:01:22;;;;;;;7.47;5.53;;;23.00;63.90;;;;;;5043436;28;20032;-55
2021/09/11 10:04:19;;;;;;;7.90;5.60;;;22.90;64.40;;;;;;5043312;28;20033;-55
2021/09/11 10:07:04;;;;;;;8.55;5.57;;;22.90;64.70;;;;;;5032533;28;20048;-54
2021/09/11 10:09:49;;;;;;;6.72;5.28;;;22.80;64.50;;;;;;5046297;28;20093;-54
2021/09/11 10:12:41;;;;;;;9.80;5.10;;;22.80;64.70;;;;;;5047043;28;20053;-54
2021/09/11 10:15:27;;;;;;;5.82;5.18;;;22.80;65.10;;;;;;5046224;28;20060;-54
2021/09/11 10:18:41;;;;;;;7.78;5.65;;;22.80;64.70;;;;;;5047386;28;20025;-55
2021/09/11 10:21:35;;;;;;;6.32;5.55;;;22.80;64.00;;;;;;5043519;28;20076;-54
2021/09/11 10:24:22;;;;;;;6.50;5.32;;;22.80;65.00;;;;;;5046853;28;20048;-53
2021/09/11 10:27:09;;;;;;;7.10;5.63;;;22.80;65.50;;;;;;5047327;28;20060;-54
2021/09/11 10:29:55;;;;;;;7.05;5.70;;;22.90;66.30;;;;;;5046891;28;20064;-54
2021/09/11 10:32:41;;;;;;;7.60;5.50;;;22.90;65.50;;;;;;5046864;28;20381;-52
2021/09/11 10:35:25;;;;;;;8.18;5.22;;;23.00;66.80;;;;;;5047141;28;20052;-54
2021/09/11 10:38:09;;;;;;;8.05;5.43;;;23.10;66.90;;;;;;5031958;28;20067;-54
2021/09/11 10:40:54;;;;;;;5.93;5.28;;;23.10;65.80;;;;;;5046768;28;20068;-53
2021/09/11 10:43:38;;;;;;;8.63;5.40;;;23.10;65.10;;;;;;5017608;28;20036;-54
2021/09/11 10:46:22;;;;;;;9.38;5.90;;;23.20;65.50;;;;;;5045782;28;20068;-54
2021/09/11 10:49:22;;;;;;;8.85;5.15;;;23.10;65.80;;;;;;5045968;28;20087;-54
2021/09/11 10:52:08;;;;;;;7.17;4.87;;;23.20;65.80;;;;;;5033634;28;20109;-52
2021/09/11 10:54:52;;;;;;;10.75;5.55;;;23.20;65.90;;;;;;5046441;28;20059;-55
2021/09/11 10:57:36;;;;;;;7.45;5.47;;;23.20;65.60;;;;;;5046369;28;20029;-53
2021/09/11 11:00:21;;;;;;;6.68;4.97;;;23.30;65.70;;;;;;5046071;28;20095;-53
2021/09/11 11:03:18;;;;;;;6.55;5.25;;;23.30;65.60;;;;;;5045755;28;20121;-54
2021/09/11 11:06:04;;;;;;;6.82;5.18;;;23.30;65.10;;;;;;5046309;28;20039;-54
2021/09/11 11:08:48;;;;;;;7.82;5.47;;;23.40;64.20;;;;;;5046169;28;20040;-52
2021/09/11 11:11:32;;;;;;;5.57;4.97;;;23.30;64.70;;;;;;5046543;28;20260;-54
2021/09/11 11:14:16;;;;;;;6.20;5.25;;;23.30;64.50;;;;;;5045465;28;20052;-54
2021/09/11 11:17:00;;;;;;;7.53;5.20;;;23.40;64.30;;;;;;5044890;28;20362;-54
2021/09/11 11:19:49;;;;;;;6.45;4.50;;;23.50;64.20;;;;;;5046317;28;20053;-54
2021/09/11 11:22:38;;;;;;;10.43;5.00;;;23.50;63.30;;;;;;5046158;28;20068;-55
2021/09/11 11:25:39;;;;;;;6.68;5.07;;;23.50;63.30;;;;;;5046029;28;20070;-55
2021/09/11 11:28:24;;;;;;;6.47;5.05;;;23.60;63.00;;;;;;5046047;28;20087;-55
2021/09/11 11:31:08;;;;;;;6.35;4.70;;;23.70;63.40;;;;;;5045062;28;20052;-54
2021/09/11 11:33:52;;;;;;;5.47;4.63;;;23.80;63.30;;;;;;5044949;28;20044;-56
2021/09/11 11:36:36;;;;;;;5.05;4.20;;;24.00;61.80;;;;;;5044693;28;20031;-55
2021/09/11 11:39:28;;;;;;;6.22;4.50;;;24.00;61.20;;;;;;5045788;28;20028;-54
2021/09/11 11:42:12;;;;;;;5.68;4.80;;;24.00;60.20;;;;;;5046905;28;20399;-55
2021/09/11 11:44:56;;;;;;;6.68;4.25;;;24.00;60.90;;;;;;5046220;28;20079;-55
2021/09/11 11:47:51;;;;;;;5.43;4.03;;;24.10;62.50;;;;;;5046612;28;20037;-55
2021/09/11 11:50:37;;;;;;;5.25;4.60;;;24.20;61.50;;;;;;5047034;28;20271;-55
2021/09/11 11:53:21;;;;;;;4.82;4.30;;;24.30;60.60;;;;;;5045703;28;20071;-55
2021/09/11 11:56:06;;;;;;;5.18;3.92;;;24.30;61.70;;;;;;5045300;28;20075;-54
2021/09/11 11:58:57;;;;;;;6.13;4.18;;;24.30;60.20;;;;;;5045487;28;20033;-55
2021/09/11 12:01:41;;;;;;;9.18;4.68;;;24.30;59.80;;;;;;5045151;28;20037;-54
2021/09/11 12:04:25;;;;;;;4.60;4.10;;;24.40;61.20;;;;;;5045192;28;20033;-55
2021/09/11 12:07:10;;;;;;;5.88;4.10;;;24.40;60.60;;;;;;5044908;28;20036;-55
2021/09/11 12:09:54;;;;;;;6.43;4.15;;;24.40;60.10;;;;;;5044578;28;20040;-54
2021/09/11 12:12:42;;;;;;;6.05;4.30;;;24.40;60.50;;;;;;5045018;28;20053;-54
2021/09/11 12:15:26;;;;;;;6.13;4.15;;;24.30;60.30;;;;;;5045275;28;20380;-55
2021/09/11 12:18:15;;;;;;;5.18;4.15;;;24.30;61.40;;;;;;5046014;28;20100;-54
2021/09/11 12:20:59;;;;;;;5.72;4.25;;;24.30;60.00;;;;;;5045007;28;20079;-53
2021/09/11 12:23:48;;;;;;;5.30;4.00;;;24.30;61.00;;;;;;5030590;28;20060;-55
2021/09/11 12:26:33;;;;;;;6.53;4.38;;;24.20;60.10;;;;;;5045186;28;20048;-55
2021/09/11 12:29:17;;;;;;;5.68;4.70;;;24.20;60.50;;;;;;5044148;28;20029;-55
2021/09/11 12:32:05;;;;;;;7.30;5.03;;;24.20;62.30;;;;;;5043589;28;20041;-55
2021/09/11 12:34:49;;;;;;;5.88;4.50;;;24.10;63.50;;;;;;5044913;28;20072;-54
2021/09/11 12:37:53;;;;;;;6.30;4.50;;;24.00;64.00;;;;;;5044455;28;20371;-54
2021/09/11 12:40:37;;;;;;;6.72;3.95;;;24.00;63.80;;;;;;5044516;28;20125;-55
2021/09/11 12:43:21;;;;;;;5.45;3.25;;;23.80;64.10;;;;;;5044460;28;20088;-54
2021/09/11 12:46:06;;;;;;;7.80;4.10;;;23.70;64.50;;;;;;5044475;28;20048;-55
2021/09/11 12:48:50;;;;;;;11.38;5.60;;;23.50;65.70;;;;;;5044356;28;20067;-54
2021/09/11 12:51:35;;;;;;;9.65;4.82;;;23.30;67.00;;;;;;5044235;28;20036;-53
2021/09/11 12:54:21;;;;;;;6.93;4.45;;;23.10;67.70;;;;;;5044232;28;20107;-54
2021/09/11 12:57:05;;;;;;;7.40;4.70;;;22.90;67.70;;;;;;5043977;28;20347;-55
2021/09/11 12:59:49;;;;;;;6.35;4.50;;;23.00;67.70;;;;;;5044227;28;20078;-53
2021/09/11 13:02:34;;;;;;;8.05;4.90;;;22.90;68.20;;;;;;5044582;28;20212;-55
2021/09/11 13:05:18;;;;;;;7.00;4.25;;;22.80;68.40;;;;;;5044374;28;20060;-54
2021/09/11 13:08:02;;;;;;;7.22;4.50;;;22.80;69.10;;;;;;5043885;28;20079;-55
2021/09/11 13:10:50;;;;;;;7.82;4.38;;;22.70;70.10;;;;;;5044011;28;20031;-55
2021/09/11 13:13:34;;;;;;;5.63;3.78;;;22.70;70.40;;;;;;5043797;28;20099;-53
2021/09/11 13:16:18;;;;;;;5.05;4.07;;;22.70;69.60;;;;;;5043856;28;20040;-53
2021/09/11 13:19:04;;;;;;;4.90;3.60;;;22.70;69.80;;;;;;5043916;28;20036;-54
2021/09/11 13:21:48;;;;;;;5.28;3.00;;;22.80;70.00;;;;;;5042671;28;20033;-55
2021/09/11 13:24:33;;;;;;;6.30;3.05;;;22.80;69.60;;;;;;5042771;28;20033;-55
2021/09/11 13:27:17;;;;;;;4.63;3.30;;;22.80;69.50;;;;;;5043534;28;20048;-55
2021/09/11 13:30:01;;;;;;;2.63;2.35;;;22.90;70.80;;;;;;5044100;28;20209;-55
2021/09/11 13:32:45;;;;;;;2.90;2.40;;;23.00;70.60;;;;;;5043716;28;20059;-55
2021/09/11 13:35:29;;;;;;;4.07;2.55;;;23.10;70.70;;;;;;5044101;28;20076;-54
2021/09/11 13:38:14;;;;;;;4.30;2.72;;;23.10;69.60;;;;;;5043997;28;20197;-55
2021/09/11 13:40:58;;;;;;;3.55;2.55;;;23.20;69.20;;;;;;5043341;28;20089;-55
2021/09/11 13:43:43;;;;;;;3.67;2.50;;;23.20;68.50;;;;;;5043646;28;20028;-55
2021/09/11 13:46:27;;;;;;;5.80;3.65;;;23.30;68.30;;;;;;5043766;28;20055;-56
2021/09/11 13:49:11;;;;;;;3.58;2.88;;;23.40;69.90;;;;;;5043758;28;20261;-56
2021/09/11 13:51:56;;;;;;;5.63;3.40;;;23.50;68.50;;;;;;5043719;28;20100;-56
2021/09/11 13:54:43;;;;;;;3.78;2.90;;;23.50;70.10;;;;;;5043731;28;20044;-55
2021/09/11 13:57:28;;;;;;;3.67;2.92;;;23.60;68.00;;;;;;5043521;28;20032;-55
2021/09/11 14:00:12;;;;;;;4.50;3.03;;;23.50;69.70;;;;;;5043873;28;20364;-55
2021/09/11 14:03:01;;;;;;;4.30;3.15;;;23.60;69.30;;;;;;5043504;28;20060;-56
2021/09/11 14:05:45;;;;;;;5.30;3.58;;;23.50;68.00;;;;;;5042464;28;20043;-56
2021/09/11 14:08:29;;;;;;;4.75;3.50;;;23.50;68.80;;;;;;5042926;28;20224;-55
2021/09/11 14:11:13;;;;;;;4.85;3.28;;;23.50;67.60;;;;;;5043751;28;20344;-56
2021/09/11 14:14:00;;;;;;;3.80;3.08;;;23.50;68.10;;;;;;5043312;28;20120;-56